createdAt,value
2023-01-09T00:00:21.237Z,0.06
2023-01-09T00:02:51.459Z,0.03
2023-01-09T00:05:21.000Z,-0.08
2023-01-09T00:07:51.820Z,-0.04
2023-01-09T00:10:21.231Z,0.02
2023-01-09T00:12:53.365Z,0.05
2023-01-09T00:15:23.050Z,-0.07
2023-01-09T00:17:52.212Z,0.00
2023-01-09T00:20:21.607Z,-0.09
2023-01-09T00:22:52.329Z,-0.03
2023-01-09T00:25:22.998Z,-0.05
2023-01-09T00:27:52.725Z,-0.15
2023-01-09T00:30:22.170Z,-0.17
2023-01-09T00:32:51.630Z,-0.22
2023-01-09T00:35:21.013Z,-0.20
2023-01-09T00:37:51.540Z,-0.51
2023-01-09T00:40:21.388Z,-0.48
2023-01-09T00:42:54.424Z,-0.35
2023-01-09T00:45:29.441Z,-0.42
2023-01-09T00:48:05.394Z,-0.55
2023-01-09T00:50:36.225Z,-0.59
2023-01-09T00:53:10.973Z,-0.52
2023-01-09T00:55:41.073Z,-0.55
2023-01-09T00:58:10.451Z,-0.58
2023-01-09T01:00:39.721Z,-0.51
2023-01-09T01:03:08.966Z,-0.52
2023-01-09T01:05:55.205Z,-0.59
2023-01-09T01:08:25.954Z,-0.52
2023-01-09T01:10:55.125Z,-0.69
2023-01-09T01:13:24.353Z,-0.74
2023-01-09T01:15:53.559Z,-0.63
2023-01-09T01:18:22.747Z,-0.62
2023-01-09T01:20:51.833Z,-0.77
2023-01-09T01:23:20.985Z,-0.59
2023-01-09T01:25:51.674Z,-0.62
2023-01-09T01:28:21.609Z,-0.58
2023-01-09T01:30:50.743Z,-0.57
2023-01-09T01:33:20.457Z,-0.71
2023-01-09T01:35:49.499Z,-0.60
2023-01-09T01:38:18.820Z,-0.74
2023-01-09T01:40:56.361Z,-0.62
2023-01-09T01:43:25.941Z,-0.67
2023-01-09T01:45:55.738Z,-0.72
2023-01-09T01:48:28.959Z,-0.63
2023-01-09T01:51:03.430Z,-0.65
2023-01-09T01:53:36.469Z,-0.64
2023-01-09T01:56:08.349Z,-0.61
2023-01-09T01:58:44.903Z,-0.62
2023-01-09T02:01:14.359Z,-0.66
2023-01-09T02:03:45.003Z,-0.68
2023-01-09T02:06:15.938Z,-0.70
2023-01-09T02:08:45.367Z,-0.73
2023-01-09T02:11:18.552Z,-0.67
2023-01-09T02:13:48.154Z,-0.71
2023-01-09T02:16:29.344Z,-0.58
2023-01-09T02:19:08.173Z,-0.63
2023-01-09T02:21:52.337Z,-0.50
2023-01-09T02:24:59.709Z,-0.51
2023-01-09T02:27:59.433Z,-0.50
2023-01-09T02:30:37.278Z,-0.46
2023-01-09T02:33:27.564Z,-0.50
2023-01-09T02:36:10.395Z,-0.56
2023-01-09T02:38:48.659Z,-0.61
2023-01-09T02:41:22.407Z,-0.76
2023-01-09T02:44:16.822Z,-0.74
2023-01-09T02:46:48.151Z,-0.74
2023-01-09T02:49:19.064Z,-0.71
2023-01-09T02:51:54.254Z,-0.87
2023-01-09T02:54:36.361Z,-0.85
2023-01-09T02:57:20.073Z,-0.87
2023-01-09T03:00:04.854Z,-0.83
2023-01-09T03:02:48.467Z,-0.85
2023-01-09T03:05:24.340Z,-0.79
2023-01-09T03:08:01.304Z,-0.78
2023-01-09T03:10:37.181Z,-0.80
2023-01-09T03:13:10.317Z,-0.96
2023-01-09T03:15:43.245Z,-0.91
2023-01-09T03:18:19.515Z,-0.87
2023-01-09T03:20:49.852Z,-0.87
2023-01-09T03:23:19.198Z,-0.93
2023-01-09T03:25:48.408Z,-1.13
2023-01-09T03:28:28.079Z,-0.91
2023-01-09T03:30:57.232Z,-1.15
2023-01-09T03:33:29.152Z,-0.97
2023-01-09T03:35:58.180Z,-0.87
2023-01-09T03:38:27.315Z,-0.87
2023-01-09T03:40:56.455Z,-0.72
2023-01-09T03:43:25.683Z,-0.73
2023-01-09T03:45:54.889Z,-0.72
2023-01-09T03:48:24.391Z,-0.73
2023-01-09T03:50:55.847Z,-0.67
2023-01-09T03:53:27.117Z,-0.59
2023-01-09T03:55:59.156Z,-0.56
2023-01-09T03:58:29.131Z,-0.59
2023-01-09T04:01:01.316Z,-0.40
2023-01-09T04:03:30.624Z,-0.45
2023-01-09T04:06:01.426Z,-0.35
2023-01-09T04:08:30.905Z,-0.22
2023-01-09T04:11:00.151Z,-0.19
2023-01-09T04:13:29.281Z,-0.16
2023-01-09T04:15:59.159Z,-0.03
2023-01-09T04:18:28.326Z,0.03
2023-01-09T04:20:57.572Z,0.09
2023-01-09T04:23:28.162Z,0.13
2023-01-09T04:25:57.921Z,0.20
2023-01-09T04:28:27.167Z,0.25
2023-01-09T04:30:56.503Z,0.19
2023-01-09T04:33:25.670Z,0.24
2023-01-09T04:35:54.823Z,0.36
2023-01-09T04:38:23.941Z,0.35
2023-01-09T04:40:55.496Z,0.41
2023-01-09T04:43:24.769Z,0.49
2023-01-09T04:45:53.901Z,0.52
2023-01-09T04:48:23.810Z,0.51
2023-01-09T04:50:53.037Z,0.52
2023-01-09T04:53:22.337Z,0.64
2023-01-09T04:55:52.718Z,0.62
2023-01-09T04:58:23.516Z,0.64
2023-01-09T05:00:54.003Z,0.73
2023-01-09T05:03:23.301Z,0.69
2023-01-09T05:05:52.495Z,0.66
2023-01-09T05:08:21.870Z,0.76
2023-01-09T05:10:52.308Z,0.92
2023-01-09T05:13:22.957Z,0.95
2023-01-09T05:15:52.150Z,0.91
2023-01-09T05:18:21.461Z,1.00
2023-01-09T05:20:51.218Z,1.11
2023-01-09T05:23:20.517Z,0.93
2023-01-09T05:25:50.255Z,1.09
2023-01-09T05:28:19.654Z,1.10
2023-01-09T05:30:50.722Z,1.16
2023-01-09T05:33:19.878Z,1.15
2023-01-09T05:35:48.942Z,1.17
2023-01-09T05:38:18.166Z,1.20
2023-01-09T05:40:47.641Z,1.18
2023-01-09T05:43:16.962Z,1.20
2023-01-09T05:45:46.269Z,1.33
2023-01-09T05:48:17.377Z,1.42
2023-01-09T05:50:46.570Z,1.30
2023-01-09T05:53:15.787Z,1.25
2023-01-09T05:55:45.112Z,1.36
2023-01-09T05:58:14.457Z,1.38
2023-01-09T06:00:43.641Z,1.53
2023-01-09T06:03:13.357Z,1.58
2023-01-09T06:05:44.098Z,1.54
2023-01-09T06:08:13.271Z,1.58
2023-01-09T06:10:42.273Z,1.66
2023-01-09T06:13:12.218Z,1.75
2023-01-09T06:15:41.456Z,1.85
2023-01-09T06:18:10.847Z,1.89
2023-01-09T06:20:40.746Z,1.93
2023-01-09T06:23:13.767Z,1.96
2023-01-09T06:25:42.737Z,1.97
2023-01-09T06:28:12.483Z,1.98
2023-01-09T06:30:41.650Z,2.03
2023-01-09T06:33:10.861Z,2.01
2023-01-09T06:35:40.060Z,2.00
2023-01-09T06:38:10.885Z,1.93
2023-01-09T06:40:40.675Z,2.02
2023-01-09T06:43:10.475Z,2.03
2023-01-09T06:45:39.830Z,2.04
2023-01-09T06:48:09.114Z,2.10
2023-01-09T06:50:38.312Z,2.13
2023-01-09T06:53:08.165Z,2.16
2023-01-09T06:55:38.964Z,2.18
2023-01-09T06:58:28.381Z,2.24
2023-01-09T07:00:57.856Z,2.11
2023-01-09T07:03:27.182Z,2.23
2023-01-09T07:05:56.647Z,2.28
2023-01-09T07:08:25.798Z,2.23
2023-01-09T07:11:00.254Z,2.34
2023-01-09T07:13:29.552Z,2.36
2023-01-09T07:15:58.691Z,2.46
2023-01-09T07:18:27.879Z,2.55
2023-01-09T07:20:57.197Z,2.68
2023-01-09T07:23:26.988Z,2.77
2023-01-09T07:25:56.138Z,2.82
2023-01-09T07:28:27.069Z,2.80
2023-01-09T07:30:56.276Z,2.91
2023-01-09T07:33:25.596Z,2.88
2023-01-09T07:35:55.075Z,2.96
2023-01-09T07:38:25.753Z,2.79
2023-01-09T07:40:55.084Z,2.69
2023-01-09T07:43:26.103Z,2.73
2023-01-09T07:45:55.243Z,2.56
2023-01-09T07:48:24.759Z,2.87
2023-01-09T07:50:54.030Z,3.03
2023-01-09T07:53:23.974Z,2.99
2023-01-09T07:55:53.209Z,2.82
2023-01-09T07:58:23.063Z,2.93
2023-01-09T08:00:53.899Z,2.96
2023-01-09T08:03:22.970Z,3.08
2023-01-09T08:05:52.234Z,3.10
2023-01-09T08:08:21.574Z,3.17
2023-01-09T08:10:50.931Z,3.31
2023-01-09T08:13:20.994Z,3.40
2023-01-09T08:15:50.353Z,3.42
2023-01-09T08:18:20.965Z,3.54
2023-01-09T08:20:50.538Z,3.64
2023-01-09T08:23:20.055Z,3.83
2023-01-09T08:25:49.374Z,3.86
2023-01-09T08:28:18.707Z,4.27
2023-01-09T08:30:49.248Z,4.80
2023-01-09T08:33:18.540Z,5.10
2023-01-09T08:35:50.993Z,5.65
2023-01-09T08:38:22.265Z,6.10
2023-01-09T08:40:51.988Z,6.45
2023-01-09T08:43:38.509Z,6.55
2023-01-09T08:46:27.708Z,6.82
2023-01-09T08:48:57.069Z,7.29
2023-01-09T08:51:28.552Z,7.72
2023-01-09T08:53:59.684Z,7.78
2023-01-09T08:56:28.871Z,7.89
2023-01-09T08:58:58.030Z,7.90
2023-01-09T09:01:27.333Z,7.73
2023-01-09T09:03:56.671Z,7.58
2023-01-09T09:06:27.333Z,6.90
2023-01-09T09:08:57.072Z,7.19
2023-01-09T09:11:26.329Z,7.15
2023-01-09T09:13:56.188Z,7.45
2023-01-09T09:16:25.887Z,7.61
2023-01-09T09:18:55.545Z,7.40
2023-01-09T09:21:24.810Z,7.27
2023-01-09T09:23:58.097Z,7.58
2023-01-09T09:26:27.579Z,7.69
2023-01-09T09:29:00.313Z,7.97
2023-01-09T09:31:29.877Z,7.91
2023-01-09T09:34:00.280Z,7.90
2023-01-09T09:36:30.823Z,8.07
2023-01-09T09:39:02.823Z,8.53
2023-01-09T09:42:10.643Z,8.43
2023-01-09T09:44:54.662Z,8.50
2023-01-09T09:47:38.617Z,8.14
2023-01-09T09:50:30.901Z,7.94
2023-01-09T09:53:08.643Z,7.93
2023-01-09T09:55:41.598Z,8.73
2023-01-09T09:58:21.981Z,9.27
2023-01-09T10:00:52.530Z,9.05
2023-01-09T10:03:33.989Z,9.20
2023-01-09T10:06:10.228Z,9.53
2023-01-09T10:08:47.205Z,9.84
2023-01-09T10:11:26.950Z,10.37
2023-01-09T10:14:22.874Z,10.26
2023-01-09T10:17:09.170Z,10.22
2023-01-09T10:19:47.965Z,10.25
2023-01-09T10:22:27.048Z,10.18
2023-01-09T10:25:08.376Z,9.66
2023-01-09T10:27:58.540Z,9.37
2023-01-09T10:30:39.298Z,9.26
2023-01-09T10:33:26.917Z,9.04
2023-01-09T10:36:25.913Z,8.53
2023-01-09T10:38:57.895Z,8.42
2023-01-09T10:41:33.403Z,8.32
2023-01-09T10:44:14.102Z,8.25
2023-01-09T10:47:07.495Z,8.31
2023-01-09T10:49:38.670Z,8.17
2023-01-09T10:52:18.635Z,8.11
2023-01-09T10:54:53.118Z,8.07
2023-01-09T10:57:35.860Z,7.92
2023-01-09T11:00:09.094Z,7.66
2023-01-09T11:02:41.045Z,7.56
2023-01-09T11:05:15.129Z,7.80
2023-01-09T11:07:47.667Z,7.91
2023-01-09T11:10:19.644Z,7.99
2023-01-09T11:12:49.189Z,8.45
2023-01-09T11:15:29.378Z,8.45
2023-01-09T11:18:21.521Z,8.32
2023-01-09T11:20:51.298Z,8.36
2023-01-09T11:23:33.008Z,8.31
2023-01-09T11:26:03.741Z,8.06
2023-01-09T11:28:32.966Z,8.09
2023-01-09T11:31:04.652Z,7.99
2023-01-09T11:33:41.562Z,8.15
2023-01-09T11:36:16.597Z,8.01
2023-01-09T11:38:52.792Z,8.17
2023-01-09T11:41:25.323Z,8.27
2023-01-09T11:43:57.220Z,8.24
2023-01-09T11:46:37.676Z,8.29
2023-01-09T11:49:23.756Z,8.41
2023-01-09T11:52:19.963Z,8.61
2023-01-09T11:54:53.849Z,8.31
2023-01-09T11:57:24.260Z,8.45
2023-01-09T11:59:55.767Z,8.22
2023-01-09T12:02:41.589Z,8.24
2023-01-09T12:05:26.770Z,7.92
2023-01-09T12:08:14.540Z,8.00
2023-01-09T12:11:02.150Z,7.86
2023-01-09T12:13:47.118Z,8.02
2023-01-09T12:16:27.277Z,7.97
2023-01-09T12:19:16.241Z,7.73
2023-01-09T12:21:54.809Z,7.92
2023-01-09T12:24:46.109Z,7.96
2023-01-09T12:27:27.023Z,7.98
2023-01-09T12:30:21.640Z,7.88
2023-01-09T12:33:03.201Z,7.86
2023-01-09T12:35:42.306Z,8.00
2023-01-09T12:38:23.850Z,7.99
2023-01-09T12:41:12.227Z,8.00
2023-01-09T12:43:53.209Z,7.94
2023-01-09T12:46:24.871Z,7.99
2023-01-09T12:49:17.160Z,7.97
2023-01-09T12:51:51.972Z,8.06
2023-01-09T12:54:28.718Z,8.06
2023-01-09T12:57:02.596Z,7.85
2023-01-09T12:59:37.550Z,7.78
2023-01-09T13:02:18.725Z,7.71
2023-01-09T13:04:53.550Z,7.76
2023-01-09T13:07:29.209Z,7.71
2023-01-09T13:10:04.038Z,7.71
2023-01-09T13:12:37.028Z,7.72
2023-01-09T13:15:09.110Z,7.89
2023-01-09T13:17:52.752Z,7.67
2023-01-09T13:20:30.621Z,7.75
2023-01-09T13:23:04.076Z,7.78
2023-01-09T13:25:43.599Z,7.82
2023-01-09T13:28:20.721Z,7.73
2023-01-09T13:31:16.346Z,7.60
2023-01-09T13:33:48.029Z,7.47
2023-01-09T13:36:26.896Z,7.44
2023-01-09T13:38:59.409Z,7.47
2023-01-09T13:41:46.485Z,7.53
2023-01-09T13:44:28.800Z,7.39
2023-01-09T13:47:01.418Z,7.18
2023-01-09T13:49:35.520Z,7.16
2023-01-09T13:52:07.704Z,6.98
2023-01-09T13:55:18.162Z,6.82
2023-01-09T13:58:27.592Z,6.68
2023-01-09T14:01:02.797Z,6.50
2023-01-09T14:03:35.805Z,6.49
2023-01-09T14:06:22.982Z,6.42
2023-01-09T14:09:12.491Z,6.44
2023-01-09T14:11:42.158Z,6.24
2023-01-09T14:14:29.109Z,6.29
2023-01-09T14:17:00.349Z,6.19
2023-01-09T14:19:36.615Z,6.26
2023-01-09T14:22:07.250Z,6.25
2023-01-09T14:24:46.611Z,6.23
2023-01-09T14:28:07.029Z,6.15
2023-01-09T14:31:07.160Z,6.03
2023-01-09T14:33:36.628Z,6.04
2023-01-09T14:36:14.615Z,6.04
2023-01-09T14:38:48.235Z,6.00
2023-01-09T14:41:44.828Z,5.97
2023-01-09T14:44:28.425Z,5.86
2023-01-09T14:47:05.416Z,5.78
2023-01-09T14:49:37.388Z,5.64
2023-01-09T14:52:15.770Z,5.72
2023-01-09T14:54:51.147Z,5.72
2023-01-09T14:57:30.545Z,5.72
2023-01-09T15:00:01.988Z,5.61
2023-01-09T15:02:40.549Z,5.52
2023-01-09T15:05:13.015Z,5.40
2023-01-09T15:07:47.358Z,5.31
2023-01-09T15:10:20.611Z,5.26
2023-01-09T15:12:52.901Z,5.19
2023-01-09T15:15:24.453Z,5.10
2023-01-09T15:17:58.449Z,5.07
2023-01-09T15:20:30.292Z,5.07
2023-01-09T15:23:04.423Z,4.96
2023-01-09T15:25:40.239Z,4.89
2023-01-09T15:28:25.574Z,4.80
2023-01-09T15:30:58.796Z,4.71
2023-01-09T15:33:29.123Z,4.68
2023-01-09T15:36:02.832Z,4.58
2023-01-09T15:38:36.319Z,4.59
2023-01-09T15:41:11.146Z,4.53
2023-01-09T15:43:43.549Z,4.36
2023-01-09T15:46:17.387Z,4.37
2023-01-09T15:48:55.954Z,4.26
2023-01-09T15:51:26.439Z,4.18
2023-01-09T15:53:58.711Z,4.12
2023-01-09T15:56:30.836Z,4.12
2023-01-09T15:59:00.727Z,4.14
2023-01-09T16:01:32.033Z,4.15
2023-01-09T16:04:10.224Z,4.09
2023-01-09T16:06:45.809Z,4.09
2023-01-09T16:09:19.015Z,3.97
2023-01-09T16:11:52.388Z,3.97
2023-01-09T16:14:24.935Z,3.84
2023-01-09T16:16:55.293Z,3.84
2023-01-09T16:19:43.158Z,3.74
2023-01-09T16:22:21.856Z,3.79
2023-01-09T16:24:55.198Z,3.73
2023-01-09T16:27:27.692Z,3.81
2023-01-09T16:29:59.784Z,3.84
2023-01-09T16:32:31.877Z,3.74
2023-01-09T16:35:06.811Z,3.76
2023-01-09T16:37:37.632Z,3.58
2023-01-09T16:40:30.696Z,3.55
2023-01-09T16:43:08.889Z,3.42
2023-01-09T16:45:40.703Z,3.53
2023-01-09T16:48:16.232Z,3.49
2023-01-09T16:50:47.432Z,3.60
2023-01-09T16:53:19.115Z,3.62
2023-01-09T16:55:49.916Z,3.56
2023-01-09T16:58:25.610Z,3.49
2023-01-09T17:00:55.865Z,3.70
2023-01-09T17:03:26.545Z,3.71
2023-01-09T17:06:00.097Z,3.70
2023-01-09T17:08:32.237Z,3.76
2023-01-09T17:11:01.608Z,3.66
2023-01-09T17:13:30.923Z,3.39
2023-01-09T17:16:01.282Z,3.43
2023-01-09T17:18:30.499Z,3.34
2023-01-09T17:21:01.398Z,3.46
2023-01-09T17:23:31.014Z,3.26
2023-01-09T17:26:18.416Z,3.33
2023-01-09T17:28:50.790Z,3.23
2023-01-09T17:31:20.750Z,3.16
2023-01-09T17:33:50.573Z,3.05
2023-01-09T17:36:28.531Z,3.20
2023-01-09T17:38:58.241Z,3.07
2023-01-09T17:41:29.323Z,3.09
2023-01-09T17:44:00.565Z,3.07
2023-01-09T17:46:32.342Z,3.00
2023-01-09T17:49:04.436Z,3.06
2023-01-09T17:51:36.555Z,3.10
2023-01-09T17:54:07.039Z,3.12
2023-01-09T17:56:39.031Z,3.02
2023-01-09T17:59:08.830Z,3.07
2023-01-09T18:01:38.070Z,3.16
2023-01-09T18:04:07.892Z,3.05
2023-01-09T18:06:39.483Z,3.05
2023-01-09T18:09:11.214Z,3.00
2023-01-09T18:11:43.316Z,3.07
2023-01-09T18:14:14.101Z,3.12
2023-01-09T18:16:44.714Z,3.12
2023-01-09T18:19:14.237Z,3.09
2023-01-09T18:21:47.127Z,3.08
2023-01-09T18:24:16.378Z,3.13
2023-01-09T18:26:46.176Z,3.17
2023-01-09T18:29:15.856Z,3.14
2023-01-09T18:31:45.441Z,3.19
2023-01-09T18:34:15.124Z,3.16
2023-01-09T18:36:46.066Z,3.09
2023-01-09T18:39:15.969Z,3.15
2023-01-09T18:41:45.487Z,3.17
2023-01-09T18:44:15.092Z,3.24
2023-01-09T18:46:44.537Z,3.20
2023-01-09T18:49:14.090Z,3.22
2023-01-09T18:51:45.272Z,3.09
2023-01-09T18:54:15.430Z,3.25
2023-01-09T18:56:45.199Z,3.21
2023-01-09T18:59:15.353Z,3.20
2023-01-09T19:01:44.975Z,3.25
2023-01-09T19:04:14.583Z,3.29
2023-01-09T19:06:45.459Z,3.20
2023-01-09T19:09:15.477Z,3.26
2023-01-09T19:11:45.243Z,3.20
2023-01-09T19:14:17.915Z,3.24
2023-01-09T19:16:47.810Z,3.18
2023-01-09T19:19:17.399Z,3.11
2023-01-09T19:21:48.151Z,3.07
2023-01-09T19:24:19.670Z,3.07
2023-01-09T19:26:50.873Z,3.23
2023-01-09T19:29:20.436Z,3.34
2023-01-09T19:31:49.942Z,3.42
2023-01-09T19:34:20.527Z,3.34
2023-01-09T19:36:52.996Z,3.39
2023-01-09T19:39:22.857Z,3.39
2023-01-09T19:41:53.039Z,3.47
2023-01-09T19:44:24.784Z,3.46
2023-01-09T19:46:55.399Z,3.44
2023-01-09T19:49:27.128Z,3.36
2023-01-09T19:52:01.173Z,3.38
2023-01-09T19:54:31.810Z,3.41
2023-01-09T19:57:02.006Z,3.45
2023-01-09T19:59:32.036Z,3.40
2023-01-09T20:02:15.184Z,3.52
2023-01-09T20:04:44.589Z,3.45
2023-01-09T20:07:17.605Z,3.48
2023-01-09T20:09:46.600Z,3.57
2023-01-09T20:12:16.014Z,3.38
2023-01-09T20:14:46.227Z,3.46
2023-01-09T20:17:24.208Z,3.43
2023-01-09T20:19:55.139Z,3.40
2023-01-09T20:22:27.020Z,3.44
2023-01-09T20:24:56.632Z,3.39
2023-01-09T20:27:26.172Z,3.34
2023-01-09T20:29:55.401Z,3.33
2023-01-09T20:32:30.238Z,3.28
2023-01-09T20:35:01.081Z,3.31
2023-01-09T20:37:32.360Z,3.34
2023-01-09T20:40:01.742Z,3.40
2023-01-09T20:42:32.915Z,3.37
2023-01-09T20:45:02.905Z,3.32
2023-01-09T20:47:32.763Z,3.27
2023-01-09T20:50:02.200Z,3.26
2023-01-09T20:52:34.416Z,3.24
2023-01-09T20:55:26.680Z,3.39
2023-01-09T20:57:55.980Z,3.31
2023-01-09T21:00:27.858Z,3.33
2023-01-09T21:02:57.283Z,3.20
2023-01-09T21:05:26.686Z,3.30
2023-01-09T21:07:58.007Z,3.19
2023-01-09T21:10:29.027Z,3.20
2023-01-09T21:12:58.370Z,3.22
2023-01-09T21:15:28.086Z,3.39
2023-01-09T21:17:57.712Z,3.34
2023-01-09T21:20:27.445Z,3.41
2023-01-09T21:23:01.882Z,3.35
2023-01-09T21:25:31.139Z,3.30
2023-01-09T21:28:00.596Z,3.30
2023-01-09T21:30:30.465Z,3.28
2023-01-09T21:32:59.825Z,3.28
2023-01-09T21:35:29.510Z,3.21
2023-01-09T21:38:10.619Z,3.32
2023-01-09T21:40:39.865Z,3.32
2023-01-09T21:43:32.587Z,3.17
2023-01-09T21:46:15.785Z,3.14
2023-01-09T21:48:45.257Z,3.17
2023-01-09T21:51:14.430Z,3.22
2023-01-09T21:53:45.276Z,3.19
2023-01-09T21:56:14.775Z,3.27
2023-01-09T21:58:45.651Z,3.32
2023-01-09T22:01:14.759Z,3.32
2023-01-09T22:03:44.250Z,3.31
2023-01-09T22:06:13.543Z,3.43
2023-01-09T22:08:42.666Z,3.46
2023-01-09T22:11:15.986Z,3.44
2023-01-09T22:13:48.706Z,3.48
2023-01-09T22:16:30.936Z,3.41
2023-01-09T22:19:02.433Z,3.41
2023-01-09T22:21:31.552Z,3.44
2023-01-09T22:24:01.974Z,3.50
2023-01-09T22:26:33.578Z,3.55
2023-01-09T22:29:03.014Z,3.54
2023-01-09T22:31:33.616Z,3.52
2023-01-09T22:34:03.929Z,3.48
2023-01-09T22:36:34.252Z,3.49
2023-01-09T22:39:03.451Z,3.46
2023-01-09T22:41:34.443Z,3.45
2023-01-09T22:44:03.578Z,3.35
2023-01-09T22:46:35.729Z,3.39
2023-01-09T22:49:05.479Z,3.37
2023-01-09T22:51:34.745Z,3.41
2023-01-09T22:54:03.935Z,3.39
2023-01-09T22:56:34.499Z,3.32
2023-01-09T22:59:03.596Z,3.32
2023-01-09T23:01:32.641Z,3.24
2023-01-09T23:04:02.992Z,3.38
2023-01-09T23:06:32.220Z,3.35
2023-01-09T23:09:01.413Z,3.19
2023-01-09T23:11:49.458Z,3.39
2023-01-09T23:14:39.934Z,3.24
2023-01-09T23:17:27.427Z,3.21
2023-01-09T23:20:15.702Z,3.23
2023-01-09T23:23:03.427Z,3.37
2023-01-09T23:25:51.625Z,3.26
2023-01-09T23:28:39.474Z,3.21
2023-01-09T23:31:28.950Z,3.28
2023-01-09T23:34:19.931Z,3.22
2023-01-09T23:37:09.818Z,3.15
2023-01-09T23:39:57.161Z,3.27
2023-01-09T23:43:01.837Z,3.18
2023-01-09T23:45:52.390Z,3.31
2023-01-09T23:48:41.942Z,3.31
2023-01-09T23:51:29.623Z,3.36
2023-01-09T23:54:18.392Z,3.28
2023-01-09T23:57:06.505Z,3.22
2023-01-09T23:59:36.064Z,3.20
